createdAt,value
2019-05-03T00:02:28.863Z,78.02
2019-05-03T00:05:02.283Z,77.93
2019-05-03T00:07:27.757Z,77.40
2019-05-03T00:09:53.255Z,77.25
2019-05-03T00:12:18.787Z,76.92
2019-05-03T00:14:46.564Z,76.11
2019-05-03T00:17:12.200Z,76.66
2019-05-03T00:19:37.991Z,76.35
2019-05-03T00:22:03.491Z,76.27
2019-05-03T00:24:29.049Z,76.24
2019-05-03T00:26:54.548Z,76.03
2019-05-03T00:29:21.879Z,75.80
2019-05-03T00:31:47.254Z,76.00
2019-05-03T00:34:17.413Z,76.11
2019-05-03T00:36:55.557Z,76.02
2019-05-03T00:39:41.751Z,75.83
2019-05-03T00:42:07.322Z,75.62
2019-05-03T00:44:33.145Z,75.89
2019-05-03T00:46:58.676Z,75.85
2019-05-03T00:49:24.159Z,76.39
2019-05-03T00:51:51.576Z,75.96
2019-05-03T00:54:17.067Z,75.28
2019-05-03T00:56:44.480Z,75.32
2019-05-03T00:59:09.782Z,75.27
2019-05-03T01:01:35.266Z,75.59
2019-05-03T01:04:01.823Z,75.59
2019-05-03T01:06:27.546Z,75.65
2019-05-03T01:08:53.100Z,75.69
2019-05-03T01:11:18.759Z,75.58
2019-05-03T01:13:44.242Z,76.04
2019-05-03T01:16:13.792Z,75.94
2019-05-03T01:18:39.346Z,75.58
2019-05-03T01:21:04.856Z,75.50
2019-05-03T01:23:32.459Z,75.23
2019-05-03T01:25:57.565Z,74.83
2019-05-03T01:28:23.066Z,74.95
2019-05-03T01:30:48.542Z,74.46
2019-05-03T01:33:14.023Z,74.67
2019-05-03T01:35:39.488Z,74.71
2019-05-03T01:38:05.213Z,75.00
2019-05-03T01:40:32.597Z,74.90
2019-05-03T01:42:58.242Z,74.96
2019-05-03T01:45:23.726Z,75.14
2019-05-03T01:48:12.527Z,75.24
2019-05-03T01:50:47.996Z,74.55
2019-05-03T01:53:15.593Z,75.13
2019-05-03T01:55:54.221Z,74.88
2019-05-03T01:58:21.676Z,74.88
2019-05-03T02:00:47.584Z,75.31
2019-05-03T02:03:21.802Z,75.49
2019-05-03T02:05:51.936Z,75.14
2019-05-03T02:08:17.579Z,75.38
2019-05-03T02:10:43.717Z,76.37
2019-05-03T02:13:09.610Z,76.19
2019-05-03T02:15:35.101Z,75.74
2019-05-03T02:18:02.513Z,76.26
2019-05-03T02:20:27.721Z,76.06
2019-05-03T02:22:53.265Z,76.59
2019-05-03T02:25:18.991Z,75.96
2019-05-03T02:27:44.500Z,76.26
2019-05-03T02:30:13.701Z,76.40
2019-05-03T02:32:37.336Z,76.90
2019-05-03T02:35:02.972Z,76.91
2019-05-03T02:37:28.480Z,76.34
2019-05-03T02:39:57.927Z,76.18
2019-05-03T02:42:26.306Z,76.17
2019-05-03T02:44:50.942Z,76.01
2019-05-03T02:47:50.403Z,76.46
2019-05-03T02:50:18.774Z,76.35
2019-05-03T02:52:45.758Z,76.53
2019-05-03T02:55:16.031Z,76.54
2019-05-03T02:57:40.408Z,76.08
2019-05-03T03:00:08.867Z,76.16
2019-05-03T03:02:36.534Z,76.15
2019-05-03T03:05:02.416Z,76.57
2019-05-03T03:07:29.633Z,76.28
2019-05-03T03:09:56.520Z,75.64
2019-05-03T03:12:25.753Z,76.04
2019-05-03T03:14:55.137Z,76.22
2019-05-03T03:17:25.250Z,76.20
2019-05-03T03:19:55.117Z,76.24
2019-05-03T03:22:25.866Z,76.40
2019-05-03T03:24:55.921Z,76.22
2019-05-03T03:27:25.913Z,76.10
2019-05-03T03:30:00.326Z,76.21
2019-05-03T03:32:38.426Z,76.39
2019-05-03T03:35:20.742Z,76.39
2019-05-03T03:37:46.370Z,77.08
2019-05-03T03:40:15.902Z,76.33
2019-05-03T03:42:44.987Z,76.10
2019-05-03T03:45:10.732Z,76.75
2019-05-03T03:47:40.039Z,76.54
2019-05-03T03:50:07.697Z,76.34
2019-05-03T03:52:36.086Z,76.81
2019-05-03T03:55:06.411Z,77.29
2019-05-03T03:57:35.719Z,77.16
2019-05-03T04:00:01.621Z,76.91
2019-05-03T04:02:27.651Z,76.44
2019-05-03T04:04:56.225Z,76.27
2019-05-03T04:07:21.165Z,76.18
2019-05-03T04:09:46.974Z,77.37
2019-05-03T04:12:16.243Z,77.41
2019-05-03T04:14:50.854Z,76.98
2019-05-03T04:17:45.662Z,76.73
2019-05-03T04:20:11.995Z,76.50
2019-05-03T04:22:38.488Z,76.97
2019-05-03T04:25:05.988Z,77.06
2019-05-03T04:27:31.938Z,77.49
2019-05-03T04:29:58.150Z,78.65
2019-05-03T04:32:28.148Z,78.76
2019-05-03T04:34:50.939Z,78.24
2019-05-03T04:37:16.604Z,78.12
2019-05-03T04:39:42.152Z,77.56
2019-05-03T04:42:07.628Z,77.11
2019-05-03T04:44:35.464Z,77.38
2019-05-03T04:47:00.503Z,77.93
2019-05-03T04:49:26.419Z,77.67
2019-05-03T04:51:52.149Z,76.95
2019-05-03T04:54:36.624Z,76.79
2019-05-03T04:57:02.103Z,77.09
2019-05-03T04:59:27.815Z,76.74
2019-05-03T05:01:56.039Z,75.94
2019-05-03T05:04:20.649Z,76.59
2019-05-03T05:06:46.417Z,76.47
2019-05-03T05:09:11.880Z,76.13
2019-05-03T05:11:45.914Z,75.71
2019-05-03T05:14:11.903Z,75.49
2019-05-03T05:16:39.716Z,75.64
2019-05-03T05:19:08.508Z,75.14
2019-05-03T05:21:38.441Z,75.20
2019-05-03T05:24:05.698Z,74.96
2019-05-03T05:26:56.907Z,74.56
2019-05-03T05:29:25.473Z,74.63
2019-05-03T05:31:51.048Z,74.47
2019-05-03T05:34:17.541Z,74.20
2019-05-03T05:36:45.091Z,74.31
2019-05-03T05:39:10.675Z,73.57
2019-05-03T05:41:36.126Z,73.22
2019-05-03T05:44:01.852Z,72.81
2019-05-03T05:46:31.977Z,72.29
2019-05-03T05:48:57.524Z,71.80
2019-05-03T05:51:24.722Z,72.67
2019-05-03T05:53:50.676Z,72.61
2019-05-03T05:56:41.242Z,72.56
2019-05-03T05:59:25.657Z,71.82
2019-05-03T06:02:04.941Z,71.38
2019-05-03T06:04:30.365Z,70.64
2019-05-03T06:07:18.726Z,70.30
2019-05-03T06:10:08.247Z,69.97
2019-05-03T06:12:43.136Z,68.73
2019-05-03T06:15:15.770Z,66.40
2019-05-03T06:17:58.377Z,67.14
2019-05-03T06:20:37.731Z,66.59
2019-05-03T06:23:11.182Z,65.46
2019-05-03T06:25:42.895Z,64.35
2019-05-03T06:28:27.208Z,65.09
2019-05-03T06:31:14.967Z,63.83
2019-05-03T06:33:40.406Z,63.16
2019-05-03T06:36:06.098Z,61.87
2019-05-03T06:38:31.558Z,61.17
2019-05-03T06:40:57.334Z,60.64
2019-05-03T06:43:24.430Z,58.43
2019-05-03T06:45:50.643Z,59.09
2019-05-03T06:48:17.738Z,59.93
2019-05-03T06:50:45.421Z,56.49
2019-05-03T06:53:13.002Z,57.82
2019-05-03T06:55:39.952Z,59.00
2019-05-03T06:58:05.441Z,59.23
2019-05-03T07:00:56.353Z,59.18
2019-05-03T07:03:39.379Z,58.17
2019-05-03T07:06:37.440Z,56.94
2019-05-03T07:09:10.032Z,58.60
2019-05-03T07:11:35.743Z,57.62
2019-05-03T07:14:01.384Z,56.09
2019-05-03T07:16:26.878Z,57.03
2019-05-03T07:18:52.233Z,57.03
2019-05-03T07:21:17.703Z,55.74
2019-05-03T07:23:44.970Z,55.27
2019-05-03T07:26:10.277Z,54.41
2019-05-03T07:28:46.720Z,54.46
2019-05-03T07:31:04.687Z,54.35
2019-05-03T07:33:32.007Z,55.38
2019-05-03T07:35:57.497Z,55.53
2019-05-03T07:38:24.843Z,54.33
2019-05-03T07:40:50.712Z,54.13
2019-05-03T07:43:18.808Z,56.44
2019-05-03T07:45:44.635Z,55.51
2019-05-03T07:48:10.262Z,52.92
2019-05-03T07:50:35.851Z,53.79
2019-05-03T07:53:01.458Z,53.57
2019-05-03T07:55:45.717Z,53.15
2019-05-03T07:58:15.062Z,53.46
2019-05-03T08:00:40.816Z,56.52
2019-05-03T08:03:06.274Z,55.67
2019-05-03T08:05:31.915Z,55.32
2019-05-03T08:07:57.858Z,55.38
2019-05-03T08:10:25.499Z,54.29
2019-05-03T08:12:50.406Z,54.23
2019-05-03T08:15:16.019Z,53.97
2019-05-03T08:17:42.166Z,55.16
2019-05-03T08:20:08.274Z,55.03
2019-05-03T08:22:34.598Z,56.63
2019-05-03T08:25:01.041Z,55.66
2019-05-03T08:27:26.684Z,54.04
2019-05-03T08:29:52.151Z,54.11
2019-05-03T08:32:44.435Z,53.75
2019-05-03T08:35:31.847Z,53.78
2019-05-03T08:37:59.018Z,51.53
2019-05-03T08:40:26.400Z,51.39
2019-05-03T08:42:51.892Z,50.73
2019-05-03T08:45:17.594Z,51.13
2019-05-03T08:47:45.048Z,52.08
2019-05-03T08:50:10.636Z,51.68
2019-05-03T08:52:36.088Z,51.27
2019-05-03T08:55:01.576Z,51.90
2019-05-03T08:57:27.321Z,52.68
2019-05-03T08:59:54.771Z,52.41
2019-05-03T09:02:20.453Z,53.36
2019-05-03T09:04:46.423Z,55.03
2019-05-03T09:07:11.875Z,53.11
2019-05-03T09:09:43.331Z,52.92
2019-05-03T09:12:08.783Z,52.48
2019-05-03T09:14:42.491Z,51.45
2019-05-03T09:17:01.440Z,51.93
2019-05-03T09:19:27.451Z,52.07
2019-05-03T09:21:54.758Z,51.21
2019-05-03T09:24:20.129Z,51.98
2019-05-03T09:26:45.565Z,54.15
2019-05-03T09:29:11.300Z,53.98
2019-05-03T09:31:36.753Z,56.09
2019-05-03T09:34:02.176Z,55.79
2019-05-03T09:36:27.646Z,55.66
2019-05-03T09:38:54.986Z,54.38
2019-05-03T09:41:20.202Z,54.89
2019-05-03T09:43:45.645Z,54.35
2019-05-03T09:46:11.102Z,52.64
2019-05-03T09:48:36.849Z,50.85
2019-05-03T09:51:02.549Z,52.32
2019-05-03T09:53:30.503Z,50.51
2019-05-03T09:55:56.003Z,51.78
2019-05-03T09:58:21.631Z,52.23
2019-05-03T10:00:48.485Z,52.36
2019-05-03T10:03:13.887Z,51.54
2019-05-03T10:05:40.139Z,46.98
2019-05-03T10:08:05.592Z,48.24
2019-05-03T10:10:49.962Z,49.90
2019-05-03T10:13:23.170Z,50.59
2019-05-03T10:15:44.976Z,47.79
2019-05-03T10:18:12.777Z,49.24
2019-05-03T10:20:38.173Z,49.45
2019-05-03T10:23:14.911Z,48.91
2019-05-03T10:25:40.544Z,48.46
2019-05-03T10:28:06.006Z,48.58
2019-05-03T10:30:31.449Z,47.92
2019-05-03T10:33:19.522Z,46.69
2019-05-03T10:35:45.189Z,44.24
2019-05-03T10:38:10.923Z,46.89
2019-05-03T10:40:37.173Z,46.39
2019-05-03T10:43:04.811Z,44.68
2019-05-03T10:45:31.378Z,46.15
2019-05-03T10:47:56.859Z,46.06
2019-05-03T10:50:22.388Z,48.02
2019-05-03T10:52:55.447Z,46.72
2019-05-03T10:55:20.681Z,48.97
2019-05-03T10:57:49.238Z,49.02
2019-05-03T11:00:41.587Z,49.33
2019-05-03T11:02:54.969Z,49.31
2019-05-03T11:05:19.913Z,49.59
2019-05-03T11:07:45.737Z,47.73
2019-05-03T11:10:11.972Z,47.48
2019-05-03T11:12:37.486Z,47.03
2019-05-03T11:15:03.041Z,45.42
2019-05-03T11:17:28.497Z,45.70
2019-05-03T11:19:54.790Z,46.92
2019-05-03T11:22:20.274Z,45.78
2019-05-03T11:24:46.043Z,45.64
2019-05-03T11:27:19.551Z,48.75
2019-05-03T11:29:45.177Z,48.65
2019-05-03T11:32:20.371Z,46.49
2019-05-03T11:35:04.862Z,46.62
2019-05-03T11:37:45.313Z,47.89
2019-05-03T11:40:11.098Z,46.65
2019-05-03T11:42:50.470Z,47.25
2019-05-03T11:45:24.922Z,47.42
2019-05-03T11:48:02.715Z,48.69
2019-05-03T11:51:12.010Z,47.49
2019-05-03T11:53:37.789Z,48.42
2019-05-03T11:56:05.417Z,47.46
2019-05-03T11:58:30.423Z,46.43
2019-05-03T12:01:14.986Z,45.74
2019-05-03T12:03:37.278Z,46.48
2019-05-03T12:06:04.838Z,46.86
2019-05-03T12:08:29.933Z,46.43
2019-05-03T12:11:01.026Z,45.65
2019-05-03T12:13:30.611Z,44.89
2019-05-03T12:15:56.378Z,45.67
2019-05-03T12:18:24.795Z,44.43
2019-05-03T12:20:50.639Z,44.76
2019-05-03T12:23:17.684Z,46.90
2019-05-03T12:25:45.949Z,45.76
2019-05-03T12:28:10.864Z,42.75
2019-05-03T12:30:44.912Z,45.91
2019-05-03T12:33:10.233Z,40.05
2019-05-03T12:35:35.985Z,40.65
2019-05-03T12:38:02.062Z,42.58
2019-05-03T12:40:27.588Z,42.19
2019-05-03T12:42:54.962Z,41.14
2019-05-03T12:45:20.434Z,41.46
2019-05-03T12:47:45.887Z,40.39
2019-05-03T12:50:12.657Z,39.99
2019-05-03T12:52:49.237Z,39.77
2019-05-03T12:55:05.709Z,41.28
2019-05-03T12:57:31.175Z,39.29
2019-05-03T13:00:21.379Z,39.21
2019-05-03T13:02:55.082Z,42.49
2019-05-03T13:05:20.636Z,41.08
2019-05-03T13:07:50.904Z,41.01
2019-05-03T13:10:22.694Z,41.41
2019-05-03T13:12:52.892Z,41.82
2019-05-03T13:15:14.468Z,41.40
2019-05-03T13:17:39.995Z,40.77
2019-05-03T13:20:11.217Z,39.93
2019-05-03T13:22:37.854Z,42.02
2019-05-03T13:25:03.474Z,42.88
2019-05-03T13:27:28.919Z,40.95
2019-05-03T13:29:55.621Z,41.08
2019-05-03T13:32:21.271Z,41.79
2019-05-03T13:34:46.678Z,41.75
2019-05-03T13:37:12.306Z,40.33
2019-05-03T13:39:39.139Z,42.29
2019-05-03T13:42:05.694Z,42.93
2019-05-03T13:44:31.270Z,41.06
2019-05-03T13:46:56.775Z,41.22
2019-05-03T13:49:22.240Z,40.19
2019-05-03T13:51:48.488Z,42.35
2019-05-03T13:54:14.989Z,42.23
2019-05-03T13:56:40.746Z,40.90
2019-05-03T13:59:18.565Z,42.13
2019-05-03T14:01:33.423Z,42.29
2019-05-03T14:03:58.934Z,43.36
2019-05-03T14:06:24.688Z,42.78
2019-05-03T14:08:50.422Z,43.97
2019-05-03T14:11:16.012Z,45.47
2019-05-03T14:13:41.499Z,45.28
2019-05-03T14:16:07.569Z,43.18
2019-05-03T14:18:35.167Z,43.25
2019-05-03T14:21:12.431Z,44.86
2019-05-03T14:23:57.065Z,44.88
2019-05-03T14:26:24.450Z,45.02
2019-05-03T14:28:50.060Z,46.22
2019-05-03T14:31:15.686Z,44.96
2019-05-03T14:33:41.100Z,45.72
2019-05-03T14:36:06.573Z,45.69
2019-05-03T14:38:32.026Z,46.93
2019-05-03T14:40:57.496Z,45.75
2019-05-03T14:43:24.897Z,49.47
2019-05-03T14:45:50.553Z,48.08
2019-05-03T14:48:16.306Z,47.01
2019-05-03T14:50:41.775Z,47.13
2019-05-03T14:53:07.293Z,46.88
2019-05-03T14:55:51.736Z,46.72
2019-05-03T14:58:48.509Z,47.18
2019-05-03T15:01:22.113Z,46.90
2019-05-03T15:03:47.944Z,47.00
2019-05-03T15:06:15.359Z,47.57
2019-05-03T15:08:40.464Z,47.35
2019-05-03T15:11:06.249Z,47.45
2019-05-03T15:13:31.977Z,48.24
2019-05-03T15:15:57.446Z,48.06
2019-05-03T15:18:22.942Z,48.23
2019-05-03T15:20:48.596Z,47.46
2019-05-03T15:23:14.651Z,48.82
2019-05-03T15:25:40.421Z,48.66
2019-05-03T15:28:06.032Z,47.22
2019-05-03T15:30:31.569Z,47.41
2019-05-03T15:33:00.674Z,48.18
2019-05-03T15:35:25.892Z,48.79
2019-05-03T15:37:51.471Z,48.70
2019-05-03T15:40:17.193Z,49.12
2019-05-03T15:42:46.541Z,49.53
2019-05-03T15:45:31.297Z,49.19
2019-05-03T15:48:12.678Z,49.34
2019-05-03T15:50:38.417Z,49.18
2019-05-03T15:53:04.375Z,49.70
2019-05-03T15:55:30.277Z,49.73
2019-05-03T15:57:55.823Z,50.90
2019-05-03T16:00:21.772Z,51.32
2019-05-03T16:02:47.070Z,51.83
2019-05-03T16:05:12.544Z,51.19
2019-05-03T16:07:37.979Z,52.07
2019-05-03T16:10:04.716Z,52.23
2019-05-03T16:12:30.312Z,51.83
2019-05-03T16:14:55.679Z,52.76
2019-05-03T16:17:21.436Z,51.94
2019-05-03T16:19:47.800Z,52.33
2019-05-03T16:22:14.418Z,53.45
2019-05-03T16:24:39.979Z,53.41
2019-05-03T16:27:17.329Z,53.53
2019-05-03T16:29:44.504Z,53.60
2019-05-03T16:32:10.551Z,53.33
2019-05-03T16:34:35.898Z,54.52
2019-05-03T16:37:01.428Z,55.04
2019-05-03T16:39:27.058Z,54.56
2019-05-03T16:41:52.553Z,54.83
2019-05-03T16:44:18.063Z,54.07
2019-05-03T16:46:44.920Z,54.40
2019-05-03T16:49:10.323Z,54.33
2019-05-03T16:51:35.869Z,54.26
2019-05-03T16:54:01.432Z,54.36
2019-05-03T16:56:26.892Z,53.50
2019-05-03T16:58:52.263Z,54.01
2019-05-03T17:01:18.857Z,54.17
2019-05-03T17:03:48.752Z,53.64
2019-05-03T17:06:28.243Z,54.24
2019-05-03T17:09:11.532Z,54.09
2019-05-03T17:11:36.975Z,54.50
2019-05-03T17:14:02.377Z,54.85
2019-05-03T17:16:28.786Z,54.30
2019-05-03T17:18:55.197Z,53.51
2019-05-03T17:21:20.788Z,54.40
2019-05-03T17:23:46.265Z,53.75
2019-05-03T17:26:11.783Z,53.45
2019-05-03T17:28:37.150Z,53.42
2019-05-03T17:31:04.410Z,53.79
2019-05-03T17:33:29.905Z,53.79
2019-05-03T17:35:55.438Z,53.66
2019-05-03T17:38:20.813Z,53.93
2019-05-03T17:41:11.025Z,54.02
2019-05-03T17:43:40.663Z,53.68
2019-05-03T17:46:06.892Z,53.97
2019-05-03T17:48:32.347Z,53.34
2019-05-03T17:50:57.808Z,54.03
2019-05-03T17:53:55.016Z,52.50
2019-05-03T17:56:55.315Z,53.32
2019-05-03T17:59:28.667Z,53.32
2019-05-03T18:01:59.581Z,53.42
2019-05-03T18:04:42.771Z,53.72
2019-05-03T18:07:42.538Z,53.15
2019-05-03T18:10:09.442Z,52.65
2019-05-03T18:12:35.110Z,53.39
2019-05-03T18:15:00.559Z,53.00
2019-05-03T18:17:26.001Z,53.89
2019-05-03T18:19:51.922Z,53.71
2019-05-03T18:22:17.543Z,53.54
2019-05-03T18:24:43.255Z,54.33
2019-05-03T18:27:08.719Z,55.19
2019-05-03T18:29:34.638Z,54.35
2019-05-03T18:32:00.249Z,54.87
2019-05-03T18:34:25.694Z,54.19
2019-05-03T18:36:51.279Z,55.40
2019-05-03T18:39:16.686Z,55.15
2019-05-03T18:41:42.227Z,55.47
2019-05-03T18:44:20.345Z,55.45
2019-05-03T18:46:49.760Z,55.29
2019-05-03T18:49:29.746Z,55.19
2019-05-03T18:51:55.541Z,55.28
2019-05-03T18:54:21.463Z,56.16
2019-05-03T18:56:46.859Z,56.43
2019-05-03T18:59:14.526Z,55.56
2019-05-03T19:01:39.761Z,56.07
2019-05-03T19:04:34.337Z,55.49
2019-05-03T19:07:03.784Z,55.63
2019-05-03T19:09:59.036Z,56.61
2019-05-03T19:12:41.468Z,56.91
2019-05-03T19:15:07.901Z,55.58
2019-05-03T19:17:40.971Z,56.29
2019-05-03T19:20:10.662Z,56.73
2019-05-03T19:22:36.632Z,56.83
2019-05-03T19:25:02.704Z,56.59
2019-05-03T19:27:30.663Z,57.09
2019-05-03T19:29:56.515Z,56.99
2019-05-03T19:32:22.493Z,57.58
2019-05-03T19:34:51.192Z,57.20
2019-05-03T19:37:15.615Z,57.27
2019-05-03T19:39:43.595Z,56.96
2019-05-03T19:42:09.206Z,57.18
2019-05-03T19:44:36.698Z,57.05
2019-05-03T19:47:02.054Z,57.97
2019-05-03T19:49:27.758Z,57.17
2019-05-03T19:51:54.538Z,56.99
2019-05-03T19:54:20.337Z,56.80
2019-05-03T19:56:46.923Z,57.10
2019-05-03T19:59:14.873Z,56.55
2019-05-03T20:01:50.302Z,57.94
2019-05-03T20:04:41.038Z,57.79
2019-05-03T20:07:25.539Z,58.30
2019-05-03T20:09:51.303Z,57.98
2019-05-03T20:12:19.915Z,57.47
2019-05-03T20:14:45.450Z,57.48
2019-05-03T20:17:10.823Z,58.16
2019-05-03T20:19:36.230Z,57.96
2019-05-03T20:22:01.672Z,58.01
2019-05-03T20:24:27.440Z,59.01
2019-05-03T20:26:53.001Z,58.89
2019-05-03T20:29:18.570Z,59.25
2019-05-03T20:31:44.734Z,59.45
2019-05-03T20:34:10.393Z,59.85
2019-05-03T20:36:36.143Z,60.13
2019-05-03T20:39:01.670Z,60.78
2019-05-03T20:41:27.584Z,60.94
2019-05-03T20:46:51.140Z,61.90
2019-05-03T20:49:17.066Z,62.05
2019-05-03T20:51:44.999Z,62.58
2019-05-03T20:54:10.500Z,62.40
2019-05-03T20:56:35.905Z,63.34
2019-05-03T20:59:01.269Z,63.88
2019-05-03T21:01:26.709Z,64.14
2019-05-03T21:03:52.073Z,64.63
2019-05-03T21:06:17.516Z,64.72
2019-05-03T21:08:51.476Z,64.74
2019-05-03T21:11:10.122Z,64.95
2019-05-03T21:13:42.116Z,64.75
2019-05-03T21:16:19.210Z,65.24
2019-05-03T21:19:00.626Z,64.86
2019-05-03T21:21:51.492Z,65.49
2019-05-03T21:24:41.970Z,66.81
2019-05-03T21:27:07.463Z,66.51
2019-05-03T21:29:34.609Z,66.61
2019-05-03T21:32:00.578Z,66.92
2019-05-03T21:34:26.001Z,66.95
2019-05-03T21:36:51.965Z,67.00
2019-05-03T21:39:17.393Z,66.95
2019-05-03T21:41:44.936Z,66.69
2019-05-03T21:44:15.390Z,66.69
2019-05-03T21:46:46.072Z,66.56
2019-05-03T21:49:15.041Z,66.80
2019-05-03T21:51:40.637Z,67.42
2019-05-03T21:54:07.008Z,68.05
2019-05-03T21:56:32.468Z,68.25
2019-05-03T21:58:57.920Z,68.80
2019-05-03T22:01:25.700Z,68.73
2019-05-03T22:03:51.327Z,69.72
2019-05-03T22:06:17.195Z,69.86
2019-05-03T22:08:42.859Z,69.88
2019-05-03T22:11:08.277Z,70.11
2019-05-03T22:13:34.929Z,70.19
2019-05-03T22:16:10.477Z,69.77
2019-05-03T22:18:36.458Z,72.06
2019-05-03T22:21:07.887Z,72.17
2019-05-03T22:23:57.646Z,71.90
2019-05-03T22:26:41.939Z,72.18
2019-05-03T22:29:09.382Z,72.58
2019-05-03T22:31:35.162Z,73.78
2019-05-03T22:34:00.478Z,73.29
2019-05-03T22:36:25.919Z,73.86
2019-05-03T22:38:51.239Z,73.59
2019-05-03T22:41:16.695Z,72.74
2019-05-03T22:43:42.502Z,72.99
2019-05-03T22:46:07.963Z,72.89
2019-05-03T22:48:39.190Z,72.69
2019-05-03T22:51:04.865Z,72.70
2019-05-03T22:53:30.327Z,72.42
2019-05-03T22:55:55.645Z,72.20
2019-05-03T22:58:21.073Z,72.57
2019-05-03T23:00:46.504Z,72.68
2019-05-03T23:03:12.017Z,72.98
2019-05-03T23:05:37.411Z,73.16
2019-05-03T23:08:03.098Z,73.17
2019-05-03T23:10:30.158Z,72.29
2019-05-03T23:12:55.895Z,72.98
2019-05-03T23:15:21.265Z,73.13
2019-05-03T23:17:46.727Z,73.06
2019-05-03T23:20:21.621Z,72.94
2019-05-03T23:22:54.732Z,73.30
2019-05-03T23:25:20.712Z,73.53
2019-05-03T23:27:46.104Z,73.46
2019-05-03T23:30:12.315Z,73.32
2019-05-03T23:32:38.405Z,73.15
2019-05-03T23:35:04.939Z,73.38
2019-05-03T23:37:31.146Z,73.24
2019-05-03T23:39:56.623Z,73.33
2019-05-03T23:42:24.423Z,74.46
2019-05-03T23:44:49.756Z,74.39
2019-05-03T23:47:22.793Z,74.54
2019-05-03T23:49:48.154Z,76.17
2019-05-03T23:52:47.837Z,76.73
2019-05-03T23:55:41.547Z,76.53
2019-05-03T23:58:07.087Z,77.39
